sensor_id;sensor_type;location;lat;lon;timestamp;P1;durP1;ratioP1;P2;durP2;ratioP2
44214;SDS011;29884;47.450;19.124;2022-09-03T00:02:42;3.25;;;1.65;;
44214;SDS011;29884;47.450;19.124;2022-09-03T00:05:40;3.72;;;1.73;;
44214;SDS011;29884;47.450;19.124;2022-09-03T00:11:18;3.45;;;1.80;;
44214;SDS011;29884;47.450;19.124;2022-09-03T00:13:58;2.88;;;1.45;;
44214;SDS011;29884;47.450;19.124;2022-09-03T00:16:33;4.22;;;1.58;;
44214;SDS011;29884;47.450;19.124;2022-09-03T00:19:10;4.68;;;1.70;;
44214;SDS011;29884;47.450;19.124;2022-09-03T00:21:46;4.30;;;1.50;;
44214;SDS011;29884;47.450;19.124;2022-09-03T00:24:15;3.17;;;1.75;;
44214;SDS011;29884;47.450;19.124;2022-09-03T00:26:51;4.65;;;2.00;;
44214;SDS011;29884;47.450;19.124;2022-09-03T00:29:26;2.28;;;1.60;;
44214;SDS011;29884;47.450;19.124;2022-09-03T00:31:57;2.67;;;1.60;;
44214;SDS011;29884;47.450;19.124;2022-09-03T00:36:53;4.22;;;1.58;;
44214;SDS011;29884;47.450;19.124;2022-09-03T00:39:20;4.53;;;1.52;;
44214;SDS011;29884;47.450;19.124;2022-09-03T00:53:27;3.13;;;1.98;;
44214;SDS011;29884;47.450;19.124;2022-09-03T00:56:26;3.92;;;1.95;;
44214;SDS011;29884;47.450;19.124;2022-09-03T01:02:12;4.28;;;1.60;;
44214;SDS011;29884;47.450;19.124;2022-09-03T01:05:02;3.45;;;1.60;;
44214;SDS011;29884;47.450;19.124;2022-09-03T01:07:48;4.55;;;1.85;;
44214;SDS011;29884;47.450;19.124;2022-09-03T01:13:09;4.82;;;1.65;;
44214;SDS011;29884;47.450;19.124;2022-09-03T01:18:47;4.85;;;1.75;;
44214;SDS011;29884;47.450;19.124;2022-09-03T01:26:29;4.03;;;1.40;;
44214;SDS011;29884;47.450;19.124;2022-09-03T01:29:05;4.32;;;1.58;;
44214;SDS011;29884;47.450;19.124;2022-09-03T01:34:22;4.47;;;1.70;;
44214;SDS011;29884;47.450;19.124;2022-09-03T01:53:10;2.83;;;1.50;;
44214;SDS011;29884;47.450;19.124;2022-09-03T01:55:59;3.45;;;1.42;;
44214;SDS011;29884;47.450;19.124;2022-09-03T01:58:52;3.58;;;1.58;;
44214;SDS011;29884;47.450;19.124;2022-09-03T02:01:29;4.00;;;1.60;;
44214;SDS011;29884;47.450;19.124;2022-09-03T02:04:17;3.97;;;1.65;;
44214;SDS011;29884;47.450;19.124;2022-09-03T02:06:47;3.28;;;1.65;;
44214;SDS011;29884;47.450;19.124;2022-09-03T02:09:14;2.95;;;1.65;;
44214;SDS011;29884;47.450;19.124;2022-09-03T02:11:45;5.40;;;1.50;;
44214;SDS011;29884;47.450;19.124;2022-09-03T02:14:18;4.85;;;1.30;;
44214;SDS011;29884;47.450;19.124;2022-09-03T02:16:44;5.43;;;1.73;;
44214;SDS011;29884;47.450;19.124;2022-09-03T02:19:10;4.07;;;1.30;;
44214;SDS011;29884;47.450;19.124;2022-09-03T02:21:48;3.10;;;1.77;;
44214;SDS011;29884;47.450;19.124;2022-09-03T02:24:17;2.72;;;1.48;;
44214;SDS011;29884;47.450;19.124;2022-09-03T02:26:43;2.97;;;1.40;;
44214;SDS011;29884;47.450;19.124;2022-09-03T02:29:09;2.75;;;1.50;;
44214;SDS011;29884;47.450;19.124;2022-09-03T02:31:35;4.25;;;1.50;;
44214;SDS011;29884;47.450;19.124;2022-09-03T02:34:01;3.47;;;1.63;;
44214;SDS011;29884;47.450;19.124;2022-09-03T02:36:29;7.45;;;1.80;;
44214;SDS011;29884;47.450;19.124;2022-09-03T02:38:57;9.15;;;1.92;;
44214;SDS011;29884;47.450;19.124;2022-09-03T02:41:23;10.50;;;2.33;;
44214;SDS011;29884;47.450;19.124;2022-09-03T02:44:05;9.20;;;1.90;;
44214;SDS011;29884;47.450;19.124;2022-09-03T02:46:39;7.75;;;2.25;;
44214;SDS011;29884;47.450;19.124;2022-09-03T02:49:10;4.20;;;1.35;;
44214;SDS011;29884;47.450;19.124;2022-09-03T02:51:38;4.07;;;1.67;;
44214;SDS011;29884;47.450;19.124;2022-09-03T02:54:05;4.72;;;1.65;;
44214;SDS011;29884;47.450;19.124;2022-09-03T02:56:32;7.10;;;1.90;;
44214;SDS011;29884;47.450;19.124;2022-09-03T02:58:58;8.35;;;2.00;;
44214;SDS011;29884;47.450;19.124;2022-09-03T03:01:24;6.78;;;1.48;;
44214;SDS011;29884;47.450;19.124;2022-09-03T03:03:50;4.07;;;1.45;;
44214;SDS011;29884;47.450;19.124;2022-09-03T03:06:16;2.63;;;1.40;;
44214;SDS011;29884;47.450;19.124;2022-09-03T03:08:45;4.20;;;1.80;;
44214;SDS011;29884;47.450;19.124;2022-09-03T03:11:11;3.47;;;1.55;;
44214;SDS011;29884;47.450;19.124;2022-09-03T03:13:42;3.80;;;1.70;;
44214;SDS011;29884;47.450;19.124;2022-09-03T03:16:11;3.17;;;1.13;;
44214;SDS011;29884;47.450;19.124;2022-09-03T03:18:38;3.88;;;1.48;;
44214;SDS011;29884;47.450;19.124;2022-09-03T03:21:04;3.80;;;1.55;;
44214;SDS011;29884;47.450;19.124;2022-09-03T03:23:32;3.03;;;1.45;;
44214;SDS011;29884;47.450;19.124;2022-09-03T03:26:00;8.82;;;1.50;;
44214;SDS011;29884;47.450;19.124;2022-09-03T03:28:26;2.63;;;1.42;;
44214;SDS011;29884;47.450;19.124;2022-09-03T03:30:52;3.47;;;1.30;;
44214;SDS011;29884;47.450;19.124;2022-09-03T03:33:18;4.63;;;1.63;;
44214;SDS011;29884;47.450;19.124;2022-09-03T03:35:44;3.40;;;1.70;;
44214;SDS011;29884;47.450;19.124;2022-09-03T03:38:10;4.60;;;1.50;;
44214;SDS011;29884;47.450;19.124;2022-09-03T03:40:37;3.45;;;1.70;;
44214;SDS011;29884;47.450;19.124;2022-09-03T03:43:03;2.70;;;1.55;;
44214;SDS011;29884;47.450;19.124;2022-09-03T03:45:28;2.88;;;1.70;;
44214;SDS011;29884;47.450;19.124;2022-09-03T03:47:57;3.80;;;1.70;;
44214;SDS011;29884;47.450;19.124;2022-09-03T03:50:23;4.50;;;1.95;;
44214;SDS011;29884;47.450;19.124;2022-09-03T03:52:49;2.95;;;1.67;;
44214;SDS011;29884;47.450;19.124;2022-09-03T03:55:15;4.38;;;2.25;;
44214;SDS011;29884;47.450;19.124;2022-09-03T03:57:41;4.30;;;2.03;;
44214;SDS011;29884;47.450;19.124;2022-09-03T04:00:07;4.30;;;1.88;;
44214;SDS011;29884;47.450;19.124;2022-09-03T04:02:33;4.82;;;1.90;;
44214;SDS011;29884;47.450;19.124;2022-09-03T04:04:58;3.65;;;2.10;;
44214;SDS011;29884;47.450;19.124;2022-09-03T04:07:24;2.70;;;1.92;;
44214;SDS011;29884;47.450;19.124;2022-09-03T04:09:50;6.03;;;2.10;;
44214;SDS011;29884;47.450;19.124;2022-09-03T04:12:15;3.38;;;2.03;;
44214;SDS011;29884;47.450;19.124;2022-09-03T04:14:42;6.57;;;1.80;;
44214;SDS011;29884;47.450;19.124;2022-09-03T04:17:07;4.03;;;2.03;;
44214;SDS011;29884;47.450;19.124;2022-09-03T04:19:33;6.90;;;2.17;;
44214;SDS011;29884;47.450;19.124;2022-09-03T04:21:58;4.45;;;1.75;;
44214;SDS011;29884;47.450;19.124;2022-09-03T04:24:24;4.43;;;1.77;;
44214;SDS011;29884;47.450;19.124;2022-09-03T04:26:51;5.22;;;2.00;;
44214;SDS011;29884;47.450;19.124;2022-09-03T04:29:18;3.42;;;1.77;;
44214;SDS011;29884;47.450;19.124;2022-09-03T04:31:46;8.18;;;1.95;;
44214;SDS011;29884;47.450;19.124;2022-09-03T04:34:30;3.42;;;1.77;;
44214;SDS011;29884;47.450;19.124;2022-09-03T04:36:56;4.50;;;2.00;;
44214;SDS011;29884;47.450;19.124;2022-09-03T04:39:24;3.45;;;2.10;;
44214;SDS011;29884;47.450;19.124;2022-09-03T04:41:50;4.07;;;2.10;;
44214;SDS011;29884;47.450;19.124;2022-09-03T04:44:16;4.45;;;2.03;;
44214;SDS011;29884;47.450;19.124;2022-09-03T04:46:41;5.55;;;2.28;;
44214;SDS011;29884;47.450;19.124;2022-09-03T04:49:08;4.13;;;2.65;;
44214;SDS011;29884;47.450;19.124;2022-09-03T04:51:34;6.05;;;2.38;;
44214;SDS011;29884;47.450;19.124;2022-09-03T04:54:01;4.50;;;2.13;;
44214;SDS011;29884;47.450;19.124;2022-09-03T04:56:28;5.15;;;2.25;;
44214;SDS011;29884;47.450;19.124;2022-09-03T04:58:56;3.33;;;1.85;;
44214;SDS011;29884;47.450;19.124;2022-09-03T05:01:24;5.82;;;2.33;;
44214;SDS011;29884;47.450;19.124;2022-09-03T05:03:52;3.45;;;2.25;;
44214;SDS011;29884;47.450;19.124;2022-09-03T05:06:19;2.90;;;2.08;;
44214;SDS011;29884;47.450;19.124;2022-09-03T05:08:48;5.47;;;2.13;;
44214;SDS011;29884;47.450;19.124;2022-09-03T05:11:14;6.47;;;2.35;;
44214;SDS011;29884;47.450;19.124;2022-09-03T05:13:41;4.35;;;2.63;;
44214;SDS011;29884;47.450;19.124;2022-09-03T05:16:07;7.35;;;2.42;;
44214;SDS011;29884;47.450;19.124;2022-09-03T05:18:36;6.53;;;2.38;;
44214;SDS011;29884;47.450;19.124;2022-09-03T05:21:04;5.32;;;2.40;;
44214;SDS011;29884;47.450;19.124;2022-09-03T05:23:34;4.07;;;2.65;;
44214;SDS011;29884;47.450;19.124;2022-09-03T05:26:03;3.80;;;2.30;;
44214;SDS011;29884;47.450;19.124;2022-09-03T05:28:33;5.25;;;2.90;;
44214;SDS011;29884;47.450;19.124;2022-09-03T05:31:04;4.93;;;2.50;;
44214;SDS011;29884;47.450;19.124;2022-09-03T05:33:35;5.90;;;2.92;;
44214;SDS011;29884;47.450;19.124;2022-09-03T05:36:03;5.60;;;2.97;;
44214;SDS011;29884;47.450;19.124;2022-09-03T05:38:30;8.45;;;3.15;;
44214;SDS011;29884;47.450;19.124;2022-09-03T05:40:57;7.20;;;3.55;;
44214;SDS011;29884;47.450;19.124;2022-09-03T05:43:28;7.20;;;3.40;;
44214;SDS011;29884;47.450;19.124;2022-09-03T05:46:01;5.65;;;3.35;;
44214;SDS011;29884;47.450;19.124;2022-09-03T05:48:29;5.22;;;3.38;;
44214;SDS011;29884;47.450;19.124;2022-09-03T05:50:59;4.70;;;3.70;;
44214;SDS011;29884;47.450;19.124;2022-09-03T05:53:26;7.25;;;3.65;;
44214;SDS011;29884;47.450;19.124;2022-09-03T05:55:56;5.82;;;3.47;;
44214;SDS011;29884;47.450;19.124;2022-09-03T05:58:24;5.68;;;3.60;;
44214;SDS011;29884;47.450;19.124;2022-09-03T06:00:53;7.45;;;4.50;;
44214;SDS011;29884;47.450;19.124;2022-09-03T06:03:19;6.53;;;4.55;;
44214;SDS011;29884;47.450;19.124;2022-09-03T06:05:49;6.00;;;4.40;;
44214;SDS011;29884;47.450;19.124;2022-09-03T06:08:15;5.53;;;4.30;;
44214;SDS011;29884;47.450;19.124;2022-09-03T06:10:41;7.15;;;4.38;;
44214;SDS011;29884;47.450;19.124;2022-09-03T06:13:07;7.30;;;4.45;;
44214;SDS011;29884;47.450;19.124;2022-09-03T06:15:32;5.93;;;5.03;;
44214;SDS011;29884;47.450;19.124;2022-09-03T06:17:58;7.95;;;4.25;;
44214;SDS011;29884;47.450;19.124;2022-09-03T06:20:24;5.05;;;4.00;;
44214;SDS011;29884;47.450;19.124;2022-09-03T06:22:53;5.32;;;4.03;;
44214;SDS011;29884;47.450;19.124;2022-09-03T06:25:19;4.22;;;3.30;;
44214;SDS011;29884;47.450;19.124;2022-09-03T06:27:45;4.03;;;3.10;;
44214;SDS011;29884;47.450;19.124;2022-09-03T06:30:11;5.38;;;2.17;;
44214;SDS011;29884;47.450;19.124;2022-09-03T06:32:47;4.32;;;2.72;;
44214;SDS011;29884;47.450;19.124;2022-09-03T06:35:14;2.83;;;1.80;;
44214;SDS011;29884;47.450;19.124;2022-09-03T06:37:40;3.50;;;1.73;;
44214;SDS011;29884;47.450;19.124;2022-09-03T06:40:07;5.57;;;2.10;;
44214;SDS011;29884;47.450;19.124;2022-09-03T06:42:40;3.25;;;2.38;;
44214;SDS011;29884;47.450;19.124;2022-09-03T06:45:07;3.38;;;1.98;;
44214;SDS011;29884;47.450;19.124;2022-09-03T06:47:33;5.40;;;2.10;;
44214;SDS011;29884;47.450;19.124;2022-09-03T06:50:00;5.53;;;2.75;;
44214;SDS011;29884;47.450;19.124;2022-09-03T06:52:26;5.95;;;3.47;;
44214;SDS011;29884;47.450;19.124;2022-09-03T06:54:52;11.45;;;6.80;;
44214;SDS011;29884;47.450;19.124;2022-09-03T06:57:18;7.50;;;5.32;;
44214;SDS011;29884;47.450;19.124;2022-09-03T06:59:44;9.48;;;6.35;;
44214;SDS011;29884;47.450;19.124;2022-09-03T07:02:10;10.98;;;7.03;;
44214;SDS011;29884;47.450;19.124;2022-09-03T07:04:35;10.77;;;7.40;;
44214;SDS011;29884;47.450;19.124;2022-09-03T07:07:01;14.63;;;7.75;;
44214;SDS011;29884;47.450;19.124;2022-09-03T07:09:27;9.75;;;6.32;;
44214;SDS011;29884;47.450;19.124;2022-09-03T07:11:53;9.20;;;5.97;;
44214;SDS011;29884;47.450;19.124;2022-09-03T07:14:20;8.07;;;5.85;;
44214;SDS011;29884;47.450;19.124;2022-09-03T07:16:46;9.05;;;5.00;;
44214;SDS011;29884;47.450;19.124;2022-09-03T07:19:13;8.18;;;4.85;;
44214;SDS011;29884;47.450;19.124;2022-09-03T07:21:40;8.10;;;4.28;;
44214;SDS011;29884;47.450;19.124;2022-09-03T07:24:06;5.82;;;4.05;;
44214;SDS011;29884;47.450;19.124;2022-09-03T07:26:33;7.93;;;4.30;;
44214;SDS011;29884;47.450;19.124;2022-09-03T07:29:01;7.03;;;3.63;;
44214;SDS011;29884;47.450;19.124;2022-09-03T07:31:28;5.55;;;4.63;;
44214;SDS011;29884;47.450;19.124;2022-09-03T07:33:59;10.75;;;5.47;;
44214;SDS011;29884;47.450;19.124;2022-09-03T07:36:30;8.90;;;5.75;;
44214;SDS011;29884;47.450;19.124;2022-09-03T07:38:59;7.82;;;5.60;;
44214;SDS011;29884;47.450;19.124;2022-09-03T07:41:25;9.98;;;6.07;;
44214;SDS011;29884;47.450;19.124;2022-09-03T07:43:52;10.27;;;6.57;;
44214;SDS011;29884;47.450;19.124;2022-09-03T07:46:19;7.75;;;4.97;;
44214;SDS011;29884;47.450;19.124;2022-09-03T07:48:49;8.82;;;5.55;;
44214;SDS011;29884;47.450;19.124;2022-09-03T07:51:21;7.65;;;5.18;;
44214;SDS011;29884;47.450;19.124;2022-09-03T07:53:50;7.82;;;5.45;;
44214;SDS011;29884;47.450;19.124;2022-09-03T07:56:18;6.22;;;4.72;;
44214;SDS011;29884;47.450;19.124;2022-09-03T07:58:44;8.43;;;5.38;;
44214;SDS011;29884;47.450;19.124;2022-09-03T08:01:14;4.53;;;3.08;;
44214;SDS011;29884;47.450;19.124;2022-09-03T08:03:47;5.55;;;2.25;;
44214;SDS011;29884;47.450;19.124;2022-09-03T08:06:15;7.57;;;4.72;;
44214;SDS011;29884;47.450;19.124;2022-09-03T08:08:42;4.97;;;4.22;;
44214;SDS011;29884;47.450;19.124;2022-09-03T08:11:12;9.93;;;4.43;;
44214;SDS011;29884;47.450;19.124;2022-09-03T08:13:43;6.53;;;4.03;;
44214;SDS011;29884;47.450;19.124;2022-09-03T08:16:14;7.53;;;5.28;;
44214;SDS011;29884;47.450;19.124;2022-09-03T08:18:42;7.40;;;5.53;;
44214;SDS011;29884;47.450;19.124;2022-09-03T08:21:09;10.82;;;5.70;;
44214;SDS011;29884;47.450;19.124;2022-09-03T08:23:44;7.80;;;5.40;;
44214;SDS011;29884;47.450;19.124;2022-09-03T08:26:11;6.65;;;3.75;;
44214;SDS011;29884;47.450;19.124;2022-09-03T08:28:38;6.22;;;3.35;;
44214;SDS011;29884;47.450;19.124;2022-09-03T08:31:08;5.88;;;2.45;;
44214;SDS011;29884;47.450;19.124;2022-09-03T08:33:38;5.10;;;2.88;;
44214;SDS011;29884;47.450;19.124;2022-09-03T08:38:37;18.15;;;7.28;;
44214;SDS011;29884;47.450;19.124;2022-09-03T08:41:14;4.50;;;2.50;;
44214;SDS011;29884;47.450;19.124;2022-09-03T08:49:49;5.65;;;1.55;;
44214;SDS011;29884;47.450;19.124;2022-09-03T08:54:47;2.45;;;1.60;;
44214;SDS011;29884;47.450;19.124;2022-09-03T08:57:15;4.45;;;1.70;;
44214;SDS011;29884;47.450;19.124;2022-09-03T08:59:45;3.05;;;1.50;;
44214;SDS011;29884;47.450;19.124;2022-09-03T09:02:24;3.90;;;2.33;;
44214;SDS011;29884;47.450;19.124;2022-09-03T09:05:11;4.22;;;1.50;;
44214;SDS011;29884;47.450;19.124;2022-09-03T09:07:59;3.75;;;1.20;;
44214;SDS011;29884;47.450;19.124;2022-09-03T09:10:55;1.77;;;1.08;;
44214;SDS011;29884;47.450;19.124;2022-09-03T09:16:18;2.85;;;1.20;;
44214;SDS011;29884;47.450;19.124;2022-09-03T09:21:26;5.43;;;1.10;;
44214;SDS011;29884;47.450;19.124;2022-09-03T09:24:01;2.63;;;1.00;;
44214;SDS011;29884;47.450;19.124;2022-09-03T09:26:28;3.40;;;1.08;;
44214;SDS011;29884;47.450;19.124;2022-09-03T09:28:56;2.47;;;1.00;;
44214;SDS011;29884;47.450;19.124;2022-09-03T09:31:26;1.83;;;1.00;;
44214;SDS011;29884;47.450;19.124;2022-09-03T09:33:54;1.45;;;0.93;;
44214;SDS011;29884;47.450;19.124;2022-09-03T09:36:28;3.13;;;0.90;;
44214;SDS011;29884;47.450;19.124;2022-09-03T09:38:54;3.03;;;1.10;;
44214;SDS011;29884;47.450;19.124;2022-09-03T09:41:20;3.17;;;0.95;;
44214;SDS011;29884;47.450;19.124;2022-09-03T09:43:57;2.47;;;0.90;;
44214;SDS011;29884;47.450;19.124;2022-09-03T09:46:29;1.38;;;0.80;;
44214;SDS011;29884;47.450;19.124;2022-09-03T09:48:59;3.28;;;0.90;;
44214;SDS011;29884;47.450;19.124;2022-09-03T09:51:26;2.83;;;0.80;;
44214;SDS011;29884;47.450;19.124;2022-09-03T09:54:01;1.55;;;0.95;;
44214;SDS011;29884;47.450;19.124;2022-09-03T09:56:44;1.55;;;0.90;;
44214;SDS011;29884;47.450;19.124;2022-09-03T09:59:12;2.95;;;0.90;;
44214;SDS011;29884;47.450;19.124;2022-09-03T10:01:39;1.20;;;0.80;;
44214;SDS011;29884;47.450;19.124;2022-09-03T10:04:11;2.40;;;0.80;;
44214;SDS011;29884;47.450;19.124;2022-09-03T10:06:54;3.15;;;0.80;;
44214;SDS011;29884;47.450;19.124;2022-09-03T10:09:23;1.85;;;1.17;;
44214;SDS011;29884;47.450;19.124;2022-09-03T10:17:23;2.83;;;1.00;;
44214;SDS011;29884;47.450;19.124;2022-09-03T10:20:04;1.50;;;0.90;;
44214;SDS011;29884;47.450;19.124;2022-09-03T10:25:59;2.55;;;0.73;;
44214;SDS011;29884;47.450;19.124;2022-09-03T10:28:32;1.40;;;0.90;;
44214;SDS011;29884;47.450;19.124;2022-09-03T10:31:25;4.38;;;0.80;;
44214;SDS011;29884;47.450;19.124;2022-09-03T10:39:37;2.95;;;0.90;;
44214;SDS011;29884;47.450;19.124;2022-09-03T10:42:56;1.42;;;0.85;;
44214;SDS011;29884;47.450;19.124;2022-09-03T10:45:36;2.25;;;0.80;;
44214;SDS011;29884;47.450;19.124;2022-09-03T10:51:04;1.58;;;0.80;;
44214;SDS011;29884;47.450;19.124;2022-09-03T10:56:49;2.50;;;0.80;;
44214;SDS011;29884;47.450;19.124;2022-09-03T11:02:28;2.60;;;0.70;;
44214;SDS011;29884;47.450;19.124;2022-09-03T11:05:12;2.35;;;0.80;;
44214;SDS011;29884;47.450;19.124;2022-09-03T11:07:49;1.58;;;0.70;;
44214;SDS011;29884;47.450;19.124;2022-09-03T11:10:26;1.90;;;0.80;;
44214;SDS011;29884;47.450;19.124;2022-09-03T11:15:43;2.97;;;0.80;;
44214;SDS011;29884;47.450;19.124;2022-09-03T11:18:17;1.95;;;1.00;;
44214;SDS011;29884;47.450;19.124;2022-09-03T11:20:44;4.63;;;0.98;;
44214;SDS011;29884;47.450;19.124;2022-09-03T11:23:13;2.22;;;0.70;;
44214;SDS011;29884;47.450;19.124;2022-09-03T11:25:42;1.63;;;0.70;;
44214;SDS011;29884;47.450;19.124;2022-09-03T11:36:40;1.15;;;0.50;;
44214;SDS011;29884;47.450;19.124;2022-09-03T11:42:11;1.05;;;0.50;;
44214;SDS011;29884;47.450;19.124;2022-09-03T11:44:49;2.33;;;0.60;;
44214;SDS011;29884;47.450;19.124;2022-09-03T11:47:20;2.35;;;0.60;;
44214;SDS011;29884;47.450;19.124;2022-09-03T11:49:51;1.20;;;0.50;;
44214;SDS011;29884;47.450;19.124;2022-09-03T11:52:24;0.70;;;0.50;;
44214;SDS011;29884;47.450;19.124;2022-09-03T11:54:56;1.50;;;0.40;;
44214;SDS011;29884;47.450;19.124;2022-09-03T11:57:31;0.45;;;0.40;;
44214;SDS011;29884;47.450;19.124;2022-09-03T12:00:08;1.90;;;0.43;;
44214;SDS011;29884;47.450;19.124;2022-09-03T12:02:43;1.63;;;0.60;;
44214;SDS011;29884;47.450;19.124;2022-09-03T12:05:28;0.70;;;0.52;;
44214;SDS011;29884;47.450;19.124;2022-09-03T12:18:47;1.90;;;0.40;;
44214;SDS011;29884;47.450;19.124;2022-09-03T12:21:17;1.13;;;0.40;;
44214;SDS011;29884;47.450;19.124;2022-09-03T12:23:45;3.00;;;0.40;;
44214;SDS011;29884;47.450;19.124;2022-09-03T12:26:13;0.88;;;0.40;;
44214;SDS011;29884;47.450;19.124;2022-09-03T12:28:44;1.40;;;0.50;;
44214;SDS011;29884;47.450;19.124;2022-09-03T12:31:19;1.42;;;0.50;;
44214;SDS011;29884;47.450;19.124;2022-09-03T12:33:50;3.38;;;0.73;;
44214;SDS011;29884;47.450;19.124;2022-09-03T12:36:19;1.55;;;0.50;;
44214;SDS011;29884;47.450;19.124;2022-09-03T12:38:48;1.33;;;0.50;;
44214;SDS011;29884;47.450;19.124;2022-09-03T12:41:25;0.90;;;0.50;;
44214;SDS011;29884;47.450;19.124;2022-09-03T12:43:56;0.77;;;0.55;;
44214;SDS011;29884;47.450;19.124;2022-09-03T12:46:28;1.20;;;0.57;;
44214;SDS011;29884;47.450;19.124;2022-09-03T12:48:56;1.02;;;0.50;;
44214;SDS011;29884;47.450;19.124;2022-09-03T12:51:30;2.03;;;0.40;;
44214;SDS011;29884;47.450;19.124;2022-09-03T12:54:00;1.67;;;0.60;;
44214;SDS011;29884;47.450;19.124;2022-09-03T12:56:29;1.48;;;0.60;;
44214;SDS011;29884;47.450;19.124;2022-09-03T12:58:59;1.73;;;0.50;;
44214;SDS011;29884;47.450;19.124;2022-09-03T13:01:46;1.38;;;0.50;;
44214;SDS011;29884;47.450;19.124;2022-09-03T13:04:34;0.90;;;0.50;;
44214;SDS011;29884;47.450;19.124;2022-09-03T13:07:02;2.65;;;0.50;;
44214;SDS011;29884;47.450;19.124;2022-09-03T13:09:38;1.15;;;0.50;;
44214;SDS011;29884;47.450;19.124;2022-09-03T13:12:06;1.45;;;0.50;;
44214;SDS011;29884;47.450;19.124;2022-09-03T13:14:46;2.25;;;0.57;;
44214;SDS011;29884;47.450;19.124;2022-09-03T13:31:18;0.70;;;0.40;;
44214;SDS011;29884;47.450;19.124;2022-09-03T13:34:04;0.82;;;0.50;;
44214;SDS011;29884;47.450;19.124;2022-09-03T13:39:57;1.52;;;0.50;;
44214;SDS011;29884;47.450;19.124;2022-09-03T13:42:37;1.35;;;0.60;;
44214;SDS011;29884;47.450;19.124;2022-09-03T13:47:57;1.80;;;0.50;;
44214;SDS011;29884;47.450;19.124;2022-09-03T13:50:53;1.13;;;0.50;;
44214;SDS011;29884;47.450;19.124;2022-09-03T13:56:24;2.40;;;0.73;;
44214;SDS011;29884;47.450;19.124;2022-09-03T13:59:03;1.20;;;0.50;;
44214;SDS011;29884;47.450;19.124;2022-09-03T14:04:20;2.42;;;0.50;;
44214;SDS011;29884;47.450;19.124;2022-09-03T14:06:58;0.93;;;0.40;;
44214;SDS011;29884;47.450;19.124;2022-09-03T14:12:40;1.98;;;0.60;;
44214;SDS011;29884;47.450;19.124;2022-09-03T14:17:46;1.55;;;0.50;;
44214;SDS011;29884;47.450;19.124;2022-09-03T14:25:31;1.10;;;0.40;;
44214;SDS011;29884;47.450;19.124;2022-09-03T14:33:57;1.13;;;0.60;;
44214;SDS011;29884;47.450;19.124;2022-09-03T14:36:43;0.90;;;0.55;;
44214;SDS011;29884;47.450;19.124;2022-09-03T14:39:31;1.33;;;0.60;;
44214;SDS011;29884;47.450;19.124;2022-09-03T14:50:40;1.65;;;0.50;;
44214;SDS011;29884;47.450;19.124;2022-09-03T15:01:51;1.13;;;0.50;;
44214;SDS011;29884;47.450;19.124;2022-09-03T15:07:22;1.77;;;0.60;;
44214;SDS011;29884;47.450;19.124;2022-09-03T15:10:14;2.47;;;0.50;;
44214;SDS011;29884;47.450;19.124;2022-09-03T15:13:07;1.83;;;0.50;;
44214;SDS011;29884;47.450;19.124;2022-09-03T15:27:10;5.75;;;3.67;;
44214;SDS011;29884;47.450;19.124;2022-09-03T15:32:28;1.05;;;0.60;;
44214;SDS011;29884;47.450;19.124;2022-09-03T15:35:09;0.90;;;0.50;;
44214;SDS011;29884;47.450;19.124;2022-09-03T15:42:49;2.77;;;0.77;;
44214;SDS011;29884;47.450;19.124;2022-09-03T15:45:29;3.05;;;0.60;;
44214;SDS011;29884;47.450;19.124;2022-09-03T15:50:51;1.48;;;0.70;;
44214;SDS011;29884;47.450;19.124;2022-09-03T16:15:35;1.25;;;0.70;;
44214;SDS011;29884;47.450;19.124;2022-09-03T16:20:55;1.90;;;0.80;;
44214;SDS011;29884;47.450;19.124;2022-09-03T16:28:54;2.17;;;0.82;;
44214;SDS011;29884;47.450;19.124;2022-09-03T16:42:22;3.65;;;2.20;;
44214;SDS011;29884;47.450;19.124;2022-09-03T16:45:09;2.05;;;1.00;;
44214;SDS011;29884;47.450;19.124;2022-09-03T16:50:44;3.67;;;0.80;;
44214;SDS011;29884;47.450;19.124;2022-09-03T17:02:18;3.45;;;1.00;;
44214;SDS011;29884;47.450;19.124;2022-09-03T17:11:11;1.48;;;0.85;;
44214;SDS011;29884;47.450;19.124;2022-09-03T17:25:52;9.10;;;3.80;;
44214;SDS011;29884;47.450;19.124;2022-09-03T17:28:42;18.25;;;9.38;;
44214;SDS011;29884;47.450;19.124;2022-09-03T17:39:47;20.90;;;10.43;;
44214;SDS011;29884;47.450;19.124;2022-09-03T17:42:39;20.10;;;9.32;;
44214;SDS011;29884;47.450;19.124;2022-09-03T17:48:18;15.73;;;8.57;;
44214;SDS011;29884;47.450;19.124;2022-09-03T17:50:50;15.50;;;8.13;;
44214;SDS011;29884;47.450;19.124;2022-09-03T17:55:55;15.15;;;7.72;;
44214;SDS011;29884;47.450;19.124;2022-09-03T17:58:33;11.50;;;6.05;;
44214;SDS011;29884;47.450;19.124;2022-09-03T18:03:51;20.95;;;11.45;;
44214;SDS011;29884;47.450;19.124;2022-09-03T18:11:34;16.40;;;10.43;;
44214;SDS011;29884;47.450;19.124;2022-09-03T18:17:02;11.80;;;7.00;;
44214;SDS011;29884;47.450;19.124;2022-09-03T18:19:43;12.23;;;6.35;;
44214;SDS011;29884;47.450;19.124;2022-09-03T18:23:15;12.35;;;5.65;;
44214;SDS011;29884;47.450;19.124;2022-09-03T18:25:55;5.68;;;3.90;;
44214;SDS011;29884;47.450;19.124;2022-09-03T18:29:04;6.10;;;3.90;;
44214;SDS011;29884;47.450;19.124;2022-09-03T18:31:54;10.13;;;3.53;;
44214;SDS011;29884;47.450;19.124;2022-09-03T18:34:38;8.75;;;3.28;;
44214;SDS011;29884;47.450;19.124;2022-09-03T18:37:24;8.13;;;3.85;;
44214;SDS011;29884;47.450;19.124;2022-09-03T18:40:15;10.52;;;4.10;;
44214;SDS011;29884;47.450;19.124;2022-09-03T18:45:55;7.75;;;4.60;;
44214;SDS011;29884;47.450;19.124;2022-09-03T18:49:05;8.43;;;4.13;;
44214;SDS011;29884;47.450;19.124;2022-09-03T19:14:07;6.35;;;3.15;;
44214;SDS011;29884;47.450;19.124;2022-09-03T19:17:21;7.28;;;2.58;;
44214;SDS011;29884;47.450;19.124;2022-09-03T19:20:31;4.45;;;2.70;;
44214;SDS011;29884;47.450;19.124;2022-09-03T19:23:19;4.38;;;2.15;;
44214;SDS011;29884;47.450;19.124;2022-09-03T19:26:28;4.28;;;1.88;;
44214;SDS011;29884;47.450;19.124;2022-09-03T19:29:22;3.53;;;1.98;;
44214;SDS011;29884;47.450;19.124;2022-09-03T19:32:30;5.40;;;2.50;;
44214;SDS011;29884;47.450;19.124;2022-09-03T19:35:27;8.05;;;2.88;;
44214;SDS011;29884;47.450;19.124;2022-09-03T19:38:35;6.50;;;4.32;;
44214;SDS011;29884;47.450;19.124;2022-09-03T19:41:40;6.05;;;4.03;;
44214;SDS011;29884;47.450;19.124;2022-09-03T19:50:28;5.05;;;2.88;;
44214;SDS011;29884;47.450;19.124;2022-09-03T19:53:17;4.05;;;2.40;;
44214;SDS011;29884;47.450;19.124;2022-09-03T19:56:04;4.75;;;2.40;;
44214;SDS011;29884;47.450;19.124;2022-09-03T19:58:54;3.03;;;1.80;;
44214;SDS011;29884;47.450;19.124;2022-09-03T20:01:40;4.57;;;1.63;;
44214;SDS011;29884;47.450;19.124;2022-09-03T20:04:30;4.93;;;1.50;;
44214;SDS011;29884;47.450;19.124;2022-09-03T20:07:17;4.15;;;1.48;;
44214;SDS011;29884;47.450;19.124;2022-09-03T20:10:04;3.53;;;1.40;;
44214;SDS011;29884;47.450;19.124;2022-09-03T20:12:49;2.78;;;1.20;;
44214;SDS011;29884;47.450;19.124;2022-09-03T20:15:34;3.08;;;1.20;;
44214;SDS011;29884;47.450;19.124;2022-09-03T20:21:16;2.25;;;1.30;;
44214;SDS011;29884;47.450;19.124;2022-09-03T20:35:01;2.47;;;1.10;;
44214;SDS011;29884;47.450;19.124;2022-09-03T20:38:05;4.60;;;1.60;;
44214;SDS011;29884;47.450;19.124;2022-09-03T20:43:45;3.75;;;1.10;;
44214;SDS011;29884;47.450;19.124;2022-09-03T20:48:49;3.42;;;1.48;;
44214;SDS011;29884;47.450;19.124;2022-09-03T20:51:35;3.80;;;1.20;;
44214;SDS011;29884;47.450;19.124;2022-09-03T20:54:19;6.57;;;1.40;;
44214;SDS011;29884;47.450;19.124;2022-09-03T21:02:20;3.13;;;1.52;;
44214;SDS011;29884;47.450;19.124;2022-09-03T21:10:16;5.53;;;2.28;;
44214;SDS011;29884;47.450;19.124;2022-09-03T21:12:47;3.78;;;1.92;;